sensor_id;sensor_type;location;lat;lon;timestamp;temperature;humidity
20881;DHT22;10600;53.096;8.802;2023-12-04T00:00:33;0.30;99.90
20881;DHT22;10600;53.096;8.802;2023-12-04T00:01:34;0.30;99.90
20881;DHT22;10600;53.096;8.802;2023-12-04T00:02:34;0.30;99.90
20881;DHT22;10600;53.096;8.802;2023-12-04T00:03:35;0.30;99.90
20881;DHT22;10600;53.096;8.802;2023-12-04T00:04:35;0.30;99.90
20881;DHT22;10600;53.096;8.802;2023-12-04T00:05:36;0.30;99.90
20881;DHT22;10600;53.096;8.802;2023-12-04T00:06:36;0.30;99.90
20881;DHT22;10600;53.096;8.802;2023-12-04T00:07:37;0.30;99.90
20881;DHT22;10600;53.096;8.802;2023-12-04T00:08:38;0.40;99.90
20881;DHT22;10600;53.096;8.802;2023-12-04T00:09:38;0.40;99.90
20881;DHT22;10600;53.096;8.802;2023-12-04T00:10:39;0.40;99.90
20881;DHT22;10600;53.096;8.802;2023-12-04T00:11:40;0.40;99.90
20881;DHT22;10600;53.096;8.802;2023-12-04T00:12:40;0.50;99.90
20881;DHT22;10600;53.096;8.802;2023-12-04T00:13:41;0.40;99.90
20881;DHT22;10600;53.096;8.802;2023-12-04T00:14:41;0.50;99.90
20881;DHT22;10600;53.096;8.802;2023-12-04T00:15:42;0.50;99.90
20881;DHT22;10600;53.096;8.802;2023-12-04T00:16:42;0.50;99.90
20881;DHT22;10600;53.096;8.802;2023-12-04T00:17:43;0.50;99.90
20881;DHT22;10600;53.096;8.802;2023-12-04T00:18:43;0.50;99.90
20881;DHT22;10600;53.096;8.802;2023-12-04T00:19:44;0.50;99.90
20881;DHT22;10600;53.096;8.802;2023-12-04T00:20:44;0.50;99.90
20881;DHT22;10600;53.096;8.802;2023-12-04T00:21:45;0.50;99.90
20881;DHT22;10600;53.096;8.802;2023-12-04T00:22:46;0.50;99.90
20881;DHT22;10600;53.096;8.802;2023-12-04T00:23:46;0.50;99.90
20881;DHT22;10600;53.096;8.802;2023-12-04T00:24:47;0.40;99.90
20881;DHT22;10600;53.096;8.802;2023-12-04T00:25:47;0.50;99.90
20881;DHT22;10600;53.096;8.802;2023-12-04T00:26:48;0.40;99.90
20881;DHT22;10600;53.096;8.802;2023-12-04T00:27:48;0.50;99.90
20881;DHT22;10600;53.096;8.802;2023-12-04T00:28:49;0.40;99.90
20881;DHT22;10600;53.096;8.802;2023-12-04T00:29:49;0.40;99.90
20881;DHT22;10600;53.096;8.802;2023-12-04T00:30:50;0.40;99.90
20881;DHT22;10600;53.096;8.802;2023-12-04T00:31:50;0.40;99.90
20881;DHT22;10600;53.096;8.802;2023-12-04T00:32:51;0.40;99.90
20881;DHT22;10600;53.096;8.802;2023-12-04T00:33:51;0.40;99.90
20881;DHT22;10600;53.096;8.802;2023-12-04T00:34:52;0.40;99.90
20881;DHT22;10600;53.096;8.802;2023-12-04T00:35:52;0.40;99.90
20881;DHT22;10600;53.096;8.802;2023-12-04T00:36:53;0.40;99.90
20881;DHT22;10600;53.096;8.802;2023-12-04T00:37:54;0.40;99.90
20881;DHT22;10600;53.096;8.802;2023-12-04T00:38:54;0.40;99.90
20881;DHT22;10600;53.096;8.802;2023-12-04T00:39:55;0.40;99.90
20881;DHT22;10600;53.096;8.802;2023-12-04T00:40:55;0.50;99.90
20881;DHT22;10600;53.096;8.802;2023-12-04T00:41:56;0.40;99.90
20881;DHT22;10600;53.096;8.802;2023-12-04T00:42:57;0.40;99.90
20881;DHT22;10600;53.096;8.802;2023-12-04T00:43:57;0.40;99.90
20881;DHT22;10600;53.096;8.802;2023-12-04T00:44:58;0.50;99.90
20881;DHT22;10600;53.096;8.802;2023-12-04T00:45:59;0.40;99.90
20881;DHT22;10600;53.096;8.802;2023-12-04T00:46:59;0.50;99.90
20881;DHT22;10600;53.096;8.802;2023-12-04T00:48:00;0.40;99.90
20881;DHT22;10600;53.096;8.802;2023-12-04T00:49:00;0.40;99.90
20881;DHT22;10600;53.096;8.802;2023-12-04T00:50:01;0.40;99.90
20881;DHT22;10600;53.096;8.802;2023-12-04T00:51:01;0.40;99.90
20881;DHT22;10600;53.096;8.802;2023-12-04T00:52:02;0.40;99.90
20881;DHT22;10600;53.096;8.802;2023-12-04T00:53:03;0.50;99.90
20881;DHT22;10600;53.096;8.802;2023-12-04T00:54:04;0.50;99.90
20881;DHT22;10600;53.096;8.802;2023-12-04T00:55:05;0.50;99.90
20881;DHT22;10600;53.096;8.802;2023-12-04T00:56:06;0.50;99.90
20881;DHT22;10600;53.096;8.802;2023-12-04T00:57:07;0.50;99.90
20881;DHT22;10600;53.096;8.802;2023-12-04T00:58:08;0.50;99.90
20881;DHT22;10600;53.096;8.802;2023-12-04T00:59:09;0.50;99.90
20881;DHT22;10600;53.096;8.802;2023-12-04T01:00:10;0.50;99.90
20881;DHT22;10600;53.096;8.802;2023-12-04T01:01:11;0.50;99.90
20881;DHT22;10600;53.096;8.802;2023-12-04T01:02:11;0.50;99.90
20881;DHT22;10600;53.096;8.802;2023-12-04T01:03:12;0.50;99.90
20881;DHT22;10600;53.096;8.802;2023-12-04T01:04:12;0.50;99.90
20881;DHT22;10600;53.096;8.802;2023-12-04T01:05:13;0.50;99.90
20881;DHT22;10600;53.096;8.802;2023-12-04T01:06:23;0.50;99.90
20881;DHT22;10600;53.096;8.802;2023-12-04T01:07:23;0.50;99.90
20881;DHT22;10600;53.096;8.802;2023-12-04T01:08:24;0.50;99.90
20881;DHT22;10600;53.096;8.802;2023-12-04T01:09:24;0.50;99.90
20881;DHT22;10600;53.096;8.802;2023-12-04T01:10:25;0.50;99.90
20881;DHT22;10600;53.096;8.802;2023-12-04T01:11:26;0.50;99.90
20881;DHT22;10600;53.096;8.802;2023-12-04T01:12:26;0.50;99.90
20881;DHT22;10600;53.096;8.802;2023-12-04T01:13:27;0.60;99.90
20881;DHT22;10600;53.096;8.802;2023-12-04T01:14:27;0.60;99.90
20881;DHT22;10600;53.096;8.802;2023-12-04T01:15:28;0.60;99.90
20881;DHT22;10600;53.096;8.802;2023-12-04T01:16:28;0.60;99.90
20881;DHT22;10600;53.096;8.802;2023-12-04T01:17:29;0.60;99.90
20881;DHT22;10600;53.096;8.802;2023-12-04T01:18:29;0.60;99.90
20881;DHT22;10600;53.096;8.802;2023-12-04T01:19:30;0.60;99.90
20881;DHT22;10600;53.096;8.802;2023-12-04T01:20:30;0.60;99.90
20881;DHT22;10600;53.096;8.802;2023-12-04T01:21:33;0.70;99.90
20881;DHT22;10600;53.096;8.802;2023-12-04T01:22:34;0.70;99.90
20881;DHT22;10600;53.096;8.802;2023-12-04T01:23:35;0.70;99.90
20881;DHT22;10600;53.096;8.802;2023-12-04T01:24:36;0.70;99.90
20881;DHT22;10600;53.096;8.802;2023-12-04T01:25:36;0.70;99.90
20881;DHT22;10600;53.096;8.802;2023-12-04T01:26:37;0.80;99.90
20881;DHT22;10600;53.096;8.802;2023-12-04T01:27:37;0.80;99.90
20881;DHT22;10600;53.096;8.802;2023-12-04T01:28:38;0.80;99.90
20881;DHT22;10600;53.096;8.802;2023-12-04T01:29:38;0.80;99.90
20881;DHT22;10600;53.096;8.802;2023-12-04T01:30:39;0.80;99.90
20881;DHT22;10600;53.096;8.802;2023-12-04T01:31:39;0.80;99.90
20881;DHT22;10600;53.096;8.802;2023-12-04T01:32:40;0.80;99.90
20881;DHT22;10600;53.096;8.802;2023-12-04T01:33:41;0.80;99.90
20881;DHT22;10600;53.096;8.802;2023-12-04T01:34:41;0.80;99.90
20881;DHT22;10600;53.096;8.802;2023-12-04T01:35:42;0.80;99.90
20881;DHT22;10600;53.096;8.802;2023-12-04T01:36:42;0.80;99.90
20881;DHT22;10600;53.096;8.802;2023-12-04T01:37:43;0.80;99.90
20881;DHT22;10600;53.096;8.802;2023-12-04T01:38:43;0.80;99.90
20881;DHT22;10600;53.096;8.802;2023-12-04T01:39:44;0.80;99.90
20881;DHT22;10600;53.096;8.802;2023-12-04T01:40:44;0.80;99.90
20881;DHT22;10600;53.096;8.802;2023-12-04T01:41:45;0.90;99.90
20881;DHT22;10600;53.096;8.802;2023-12-04T01:42:45;0.90;99.90
20881;DHT22;10600;53.096;8.802;2023-12-04T01:43:46;0.90;99.90
20881;DHT22;10600;53.096;8.802;2023-12-04T01:44:47;0.90;99.90
20881;DHT22;10600;53.096;8.802;2023-12-04T01:45:49;0.90;99.90
20881;DHT22;10600;53.096;8.802;2023-12-04T01:46:50;0.90;99.90
20881;DHT22;10600;53.096;8.802;2023-12-04T01:47:50;0.90;99.90
20881;DHT22;10600;53.096;8.802;2023-12-04T01:48:52;0.90;99.90
20881;DHT22;10600;53.096;8.802;2023-12-04T01:49:53;0.80;99.90
20881;DHT22;10600;53.096;8.802;2023-12-04T01:50:53;0.80;99.90
20881;DHT22;10600;53.096;8.802;2023-12-04T01:51:54;0.80;99.90
20881;DHT22;10600;53.096;8.802;2023-12-04T01:52:55;0.80;99.90
20881;DHT22;10600;53.096;8.802;2023-12-04T01:53:58;0.80;99.90
20881;DHT22;10600;53.096;8.802;2023-12-04T01:54:59;0.80;99.90
20881;DHT22;10600;53.096;8.802;2023-12-04T01:56:00;0.80;99.90
20881;DHT22;10600;53.096;8.802;2023-12-04T01:57:02;0.80;99.90
20881;DHT22;10600;53.096;8.802;2023-12-04T01:58:04;0.80;99.90
20881;DHT22;10600;53.096;8.802;2023-12-04T01:59:04;0.80;99.90
20881;DHT22;10600;53.096;8.802;2023-12-04T02:00:06;0.80;99.90
20881;DHT22;10600;53.096;8.802;2023-12-04T02:01:11;0.70;99.90
20881;DHT22;10600;53.096;8.802;2023-12-04T02:02:13;0.70;99.90
20881;DHT22;10600;53.096;8.802;2023-12-04T02:03:13;0.70;99.90
20881;DHT22;10600;53.096;8.802;2023-12-04T02:04:14;0.70;99.90
20881;DHT22;10600;53.096;8.802;2023-12-04T02:05:16;0.70;99.90
20881;DHT22;10600;53.096;8.802;2023-12-04T02:06:17;0.70;99.90
20881;DHT22;10600;53.096;8.802;2023-12-04T02:07:20;0.70;99.90
20881;DHT22;10600;53.096;8.802;2023-12-04T02:08:20;0.70;99.90
20881;DHT22;10600;53.096;8.802;2023-12-04T02:09:21;0.70;99.90
20881;DHT22;10600;53.096;8.802;2023-12-04T02:10:22;0.70;99.90
20881;DHT22;10600;53.096;8.802;2023-12-04T02:11:23;0.70;99.90
20881;DHT22;10600;53.096;8.802;2023-12-04T02:12:25;0.70;99.90
20881;DHT22;10600;53.096;8.802;2023-12-04T02:13:25;0.70;99.90
20881;DHT22;10600;53.096;8.802;2023-12-04T02:14:26;0.70;99.90
20881;DHT22;10600;53.096;8.802;2023-12-04T02:15:27;0.70;99.90
20881;DHT22;10600;53.096;8.802;2023-12-04T02:16:28;0.70;99.90
20881;DHT22;10600;53.096;8.802;2023-12-04T02:17:31;0.70;99.90
20881;DHT22;10600;53.096;8.802;2023-12-04T02:18:33;0.70;99.90
20881;DHT22;10600;53.096;8.802;2023-12-04T02:19:34;0.70;99.90
20881;DHT22;10600;53.096;8.802;2023-12-04T02:20:35;0.70;99.90
20881;DHT22;10600;53.096;8.802;2023-12-04T02:21:35;0.80;99.90
20881;DHT22;10600;53.096;8.802;2023-12-04T02:22:37;0.80;99.90
20881;DHT22;10600;53.096;8.802;2023-12-04T02:23:38;0.80;99.90
20881;DHT22;10600;53.096;8.802;2023-12-04T02:24:38;0.80;99.90
20881;DHT22;10600;53.096;8.802;2023-12-04T02:25:39;0.80;99.90
20881;DHT22;10600;53.096;8.802;2023-12-04T02:26:44;0.80;99.90
20881;DHT22;10600;53.096;8.802;2023-12-04T02:27:50;0.90;99.90
20881;DHT22;10600;53.096;8.802;2023-12-04T02:28:55;0.90;99.90
20881;DHT22;10600;53.096;8.802;2023-12-04T02:30:02;0.90;99.90
20881;DHT22;10600;53.096;8.802;2023-12-04T02:31:07;1.00;99.90
20881;DHT22;10600;53.096;8.802;2023-12-04T02:32:11;1.00;99.90
20881;DHT22;10600;53.096;8.802;2023-12-04T02:33:13;1.00;99.90
20881;DHT22;10600;53.096;8.802;2023-12-04T02:34:15;1.00;99.90
20881;DHT22;10600;53.096;8.802;2023-12-04T02:35:20;1.00;99.90
20881;DHT22;10600;53.096;8.802;2023-12-04T02:36:23;1.00;99.90
20881;DHT22;10600;53.096;8.802;2023-12-04T02:37:25;1.00;99.90
20881;DHT22;10600;53.096;8.802;2023-12-04T02:38:27;1.00;99.90
20881;DHT22;10600;53.096;8.802;2023-12-04T02:39:28;1.00;99.90
20881;DHT22;10600;53.096;8.802;2023-12-04T02:40:28;1.00;99.90
20881;DHT22;10600;53.096;8.802;2023-12-04T02:41:29;1.00;99.90
20881;DHT22;10600;53.096;8.802;2023-12-04T02:42:30;1.00;99.90
20881;DHT22;10600;53.096;8.802;2023-12-04T02:43:31;1.00;99.90
20881;DHT22;10600;53.096;8.802;2023-12-04T02:44:31;1.00;99.90
20881;DHT22;10600;53.096;8.802;2023-12-04T02:45:32;1.00;99.90
20881;DHT22;10600;53.096;8.802;2023-12-04T02:46:32;1.00;99.90
20881;DHT22;10600;53.096;8.802;2023-12-04T02:47:33;1.00;99.90
20881;DHT22;10600;53.096;8.802;2023-12-04T02:48:33;1.00;99.90
20881;DHT22;10600;53.096;8.802;2023-12-04T02:49:34;1.00;99.90
20881;DHT22;10600;53.096;8.802;2023-12-04T02:50:34;1.00;99.90
20881;DHT22;10600;53.096;8.802;2023-12-04T02:51:35;0.90;99.90
20881;DHT22;10600;53.096;8.802;2023-12-04T02:52:35;0.90;99.90
20881;DHT22;10600;53.096;8.802;2023-12-04T02:53:36;0.90;99.90
20881;DHT22;10600;53.096;8.802;2023-12-04T02:54:36;0.90;99.90
20881;DHT22;10600;53.096;8.802;2023-12-04T02:55:37;0.90;99.90
20881;DHT22;10600;53.096;8.802;2023-12-04T02:56:38;0.90;99.90
20881;DHT22;10600;53.096;8.802;2023-12-04T02:57:38;0.90;99.90
20881;DHT22;10600;53.096;8.802;2023-12-04T02:58:39;0.90;99.90
20881;DHT22;10600;53.096;8.802;2023-12-04T02:59:39;0.90;99.90
20881;DHT22;10600;53.096;8.802;2023-12-04T03:00:40;0.90;99.90
20881;DHT22;10600;53.096;8.802;2023-12-04T03:01:40;0.90;99.90
20881;DHT22;10600;53.096;8.802;2023-12-04T03:02:41;0.90;99.90
20881;DHT22;10600;53.096;8.802;2023-12-04T03:03:42;1.00;99.90
20881;DHT22;10600;53.096;8.802;2023-12-04T03:04:43;0.90;99.90
20881;DHT22;10600;53.096;8.802;2023-12-04T03:05:43;0.90;99.90
20881;DHT22;10600;53.096;8.802;2023-12-04T03:06:44;0.90;99.90
20881;DHT22;10600;53.096;8.802;2023-12-04T03:07:44;0.90;99.90
20881;DHT22;10600;53.096;8.802;2023-12-04T03:08:46;1.00;99.90
20881;DHT22;10600;53.096;8.802;2023-12-04T03:09:46;0.90;99.90
20881;DHT22;10600;53.096;8.802;2023-12-04T03:10:47;1.00;99.90
20881;DHT22;10600;53.096;8.802;2023-12-04T03:11:47;1.00;99.90
20881;DHT22;10600;53.096;8.802;2023-12-04T03:12:48;1.00;99.90
20881;DHT22;10600;53.096;8.802;2023-12-04T03:13:48;1.00;99.90
20881;DHT22;10600;53.096;8.802;2023-12-04T03:14:49;1.00;99.90
20881;DHT22;10600;53.096;8.802;2023-12-04T03:15:49;1.00;99.90
20881;DHT22;10600;53.096;8.802;2023-12-04T03:16:50;1.00;99.90
20881;DHT22;10600;53.096;8.802;2023-12-04T03:17:51;1.00;99.90
20881;DHT22;10600;53.096;8.802;2023-12-04T03:18:51;1.00;99.90
20881;DHT22;10600;53.096;8.802;2023-12-04T03:19:52;1.00;99.90
20881;DHT22;10600;53.096;8.802;2023-12-04T03:20:52;1.00;99.90
20881;DHT22;10600;53.096;8.802;2023-12-04T03:21:53;1.00;99.90
20881;DHT22;10600;53.096;8.802;2023-12-04T03:22:53;1.00;99.90
20881;DHT22;10600;53.096;8.802;2023-12-04T03:23:54;1.00;99.90
20881;DHT22;10600;53.096;8.802;2023-12-04T03:24:54;1.00;99.90
20881;DHT22;10600;53.096;8.802;2023-12-04T03:25:55;1.00;99.90
20881;DHT22;10600;53.096;8.802;2023-12-04T03:26:55;1.00;99.90
20881;DHT22;10600;53.096;8.802;2023-12-04T03:27:56;1.00;99.90
20881;DHT22;10600;53.096;8.802;2023-12-04T03:28:57;1.00;99.90
20881;DHT22;10600;53.096;8.802;2023-12-04T03:29:57;1.00;99.90
20881;DHT22;10600;53.096;8.802;2023-12-04T03:30:58;1.00;99.90
20881;DHT22;10600;53.096;8.802;2023-12-04T03:31:58;1.00;99.90
20881;DHT22;10600;53.096;8.802;2023-12-04T03:32:59;1.00;99.90
20881;DHT22;10600;53.096;8.802;2023-12-04T03:33:59;1.00;99.90
20881;DHT22;10600;53.096;8.802;2023-12-04T03:35:00;1.00;99.90
20881;DHT22;10600;53.096;8.802;2023-12-04T03:36:01;1.00;99.90
20881;DHT22;10600;53.096;8.802;2023-12-04T03:37:02;0.90;99.90
20881;DHT22;10600;53.096;8.802;2023-12-04T03:38:02;0.90;99.90
20881;DHT22;10600;53.096;8.802;2023-12-04T03:39:03;0.90;99.90
20881;DHT22;10600;53.096;8.802;2023-12-04T03:40:05;0.90;99.90
20881;DHT22;10600;53.096;8.802;2023-12-04T03:41:13;1.00;99.90
20881;DHT22;10600;53.096;8.802;2023-12-04T03:42:14;0.90;99.90
20881;DHT22;10600;53.096;8.802;2023-12-04T03:43:14;0.90;99.90
20881;DHT22;10600;53.096;8.802;2023-12-04T03:44:15;0.90;99.90
20881;DHT22;10600;53.096;8.802;2023-12-04T03:45:15;0.90;99.90
20881;DHT22;10600;53.096;8.802;2023-12-04T03:46:16;1.00;99.90
20881;DHT22;10600;53.096;8.802;2023-12-04T03:47:16;0.90;99.90
20881;DHT22;10600;53.096;8.802;2023-12-04T03:48:17;0.90;99.90
20881;DHT22;10600;53.096;8.802;2023-12-04T03:49:17;0.90;99.90
20881;DHT22;10600;53.096;8.802;2023-12-04T03:50:18;0.90;99.90
20881;DHT22;10600;53.096;8.802;2023-12-04T03:51:18;0.90;99.90
20881;DHT22;10600;53.096;8.802;2023-12-04T03:52:19;0.90;99.90
20881;DHT22;10600;53.096;8.802;2023-12-04T03:53:19;0.90;99.90
20881;DHT22;10600;53.096;8.802;2023-12-04T03:54:20;0.90;99.90
20881;DHT22;10600;53.096;8.802;2023-12-04T03:55:21;0.90;99.90
20881;DHT22;10600;53.096;8.802;2023-12-04T03:56:21;0.90;99.90
20881;DHT22;10600;53.096;8.802;2023-12-04T03:57:22;0.90;99.90
20881;DHT22;10600;53.096;8.802;2023-12-04T03:58:22;0.90;99.90
20881;DHT22;10600;53.096;8.802;2023-12-04T03:59:23;0.90;99.90
20881;DHT22;10600;53.096;8.802;2023-12-04T04:00:23;0.90;99.90
20881;DHT22;10600;53.096;8.802;2023-12-04T04:01:24;0.90;99.90
20881;DHT22;10600;53.096;8.802;2023-12-04T04:02:24;0.90;99.90
20881;DHT22;10600;53.096;8.802;2023-12-04T04:03:25;0.90;99.90
20881;DHT22;10600;53.096;8.802;2023-12-04T04:04:25;0.90;99.90
20881;DHT22;10600;53.096;8.802;2023-12-04T04:05:26;0.80;99.90
20881;DHT22;10600;53.096;8.802;2023-12-04T04:06:26;0.80;99.90
20881;DHT22;10600;53.096;8.802;2023-12-04T04:07:27;0.80;99.90
20881;DHT22;10600;53.096;8.802;2023-12-04T04:08:27;0.80;99.90
20881;DHT22;10600;53.096;8.802;2023-12-04T04:09:28;0.80;99.90
20881;DHT22;10600;53.096;8.802;2023-12-04T04:10:28;0.80;99.90
20881;DHT22;10600;53.096;8.802;2023-12-04T04:11:29;0.80;99.90
20881;DHT22;10600;53.096;8.802;2023-12-04T04:12:30;0.90;99.90
20881;DHT22;10600;53.096;8.802;2023-12-04T04:13:31;0.80;99.90
20881;DHT22;10600;53.096;8.802;2023-12-04T04:14:32;0.80;99.90
20881;DHT22;10600;53.096;8.802;2023-12-04T04:15:32;0.80;99.90
20881;DHT22;10600;53.096;8.802;2023-12-04T04:16:33;0.80;99.90
20881;DHT22;10600;53.096;8.802;2023-12-04T04:17:33;0.80;99.90
20881;DHT22;10600;53.096;8.802;2023-12-04T04:18:34;0.80;99.90
20881;DHT22;10600;53.096;8.802;2023-12-04T04:19:35;0.90;99.90
20881;DHT22;10600;53.096;8.802;2023-12-04T04:20:36;0.90;99.90
20881;DHT22;10600;53.096;8.802;2023-12-04T04:21:39;0.90;99.90
20881;DHT22;10600;53.096;8.802;2023-12-04T04:22:40;0.90;99.90
20881;DHT22;10600;53.096;8.802;2023-12-04T04:23:41;0.90;99.90
20881;DHT22;10600;53.096;8.802;2023-12-04T04:24:42;0.90;99.90
20881;DHT22;10600;53.096;8.802;2023-12-04T04:25:42;0.90;99.90
20881;DHT22;10600;53.096;8.802;2023-12-04T04:26:43;0.90;99.90
20881;DHT22;10600;53.096;8.802;2023-12-04T04:27:43;0.90;99.90
20881;DHT22;10600;53.096;8.802;2023-12-04T04:28:44;0.90;99.90
20881;DHT22;10600;53.096;8.802;2023-12-04T04:29:44;0.90;99.90
20881;DHT22;10600;53.096;8.802;2023-12-04T04:30:45;0.90;99.90
20881;DHT22;10600;53.096;8.802;2023-12-04T04:31:45;0.90;99.90
20881;DHT22;10600;53.096;8.802;2023-12-04T04:32:46;0.90;99.90
20881;DHT22;10600;53.096;8.802;2023-12-04T04:33:46;0.90;99.90
20881;DHT22;10600;53.096;8.802;2023-12-04T04:34:47;0.90;99.90
20881;DHT22;10600;53.096;8.802;2023-12-04T04:35:47;0.90;99.90
20881;DHT22;10600;53.096;8.802;2023-12-04T04:36:48;0.90;99.90
20881;DHT22;10600;53.096;8.802;2023-12-04T04:37:48;0.90;99.90
20881;DHT22;10600;53.096;8.802;2023-12-04T04:38:49;0.90;99.90
20881;DHT22;10600;53.096;8.802;2023-12-04T04:39:49;0.90;99.90
20881;DHT22;10600;53.096;8.802;2023-12-04T04:40:50;0.90;99.90
20881;DHT22;10600;53.096;8.802;2023-12-04T04:41:50;0.90;99.90
20881;DHT22;10600;53.096;8.802;2023-12-04T04:42:51;0.90;99.90
20881;DHT22;10600;53.096;8.802;2023-12-04T04:43:51;0.90;99.90
20881;DHT22;10600;53.096;8.802;2023-12-04T04:44:52;1.00;99.90
20881;DHT22;10600;53.096;8.802;2023-12-04T04:45:53;1.00;99.90
20881;DHT22;10600;53.096;8.802;2023-12-04T04:46:53;1.00;99.90
20881;DHT22;10600;53.096;8.802;2023-12-04T04:47:54;1.00;99.90
20881;DHT22;10600;53.096;8.802;2023-12-04T04:48:55;1.00;99.90
20881;DHT22;10600;53.096;8.802;2023-12-04T04:49:55;1.00;99.90
20881;DHT22;10600;53.096;8.802;2023-12-04T04:50:56;1.00;99.90
20881;DHT22;10600;53.096;8.802;2023-12-04T04:51:56;1.00;99.90
20881;DHT22;10600;53.096;8.802;2023-12-04T04:52:57;1.00;99.90
20881;DHT22;10600;53.096;8.802;2023-12-04T04:53:57;1.00;99.90
20881;DHT22;10600;53.096;8.802;2023-12-04T04:54:58;1.00;99.90
20881;DHT22;10600;53.096;8.802;2023-12-04T04:55:58;1.00;99.90
20881;DHT22;10600;53.096;8.802;2023-12-04T04:56:59;1.00;99.90
20881;DHT22;10600;53.096;8.802;2023-12-04T04:58:00;1.00;99.90
20881;DHT22;10600;53.096;8.802;2023-12-04T04:59:00;1.00;99.90
20881;DHT22;10600;53.096;8.802;2023-12-04T05:00:01;1.00;99.90
20881;DHT22;10600;53.096;8.802;2023-12-04T05:01:01;1.10;99.90
20881;DHT22;10600;53.096;8.802;2023-12-04T05:02:02;1.00;99.90
20881;DHT22;10600;53.096;8.802;2023-12-04T05:03:02;1.10;99.90
20881;DHT22;10600;53.096;8.802;2023-12-04T05:04:03;1.10;99.90
20881;DHT22;10600;53.096;8.802;2023-12-04T05:05:04;1.10;99.90
20881;DHT22;10600;53.096;8.802;2023-12-04T05:06:05;1.10;99.90
20881;DHT22;10600;53.096;8.802;2023-12-04T05:07:06;1.10;99.90
20881;DHT22;10600;53.096;8.802;2023-12-04T05:08:06;1.10;99.90
20881;DHT22;10600;53.096;8.802;2023-12-04T05:09:07;1.10;99.90
20881;DHT22;10600;53.096;8.802;2023-12-04T05:10:08;1.10;99.90
20881;DHT22;10600;53.096;8.802;2023-12-04T05:11:08;1.10;99.90
20881;DHT22;10600;53.096;8.802;2023-12-04T05:12:09;1.10;99.90
20881;DHT22;10600;53.096;8.802;2023-12-04T05:13:09;1.00;99.90
20881;DHT22;10600;53.096;8.802;2023-12-04T05:14:10;1.00;99.90
20881;DHT22;10600;53.096;8.802;2023-12-04T05:15:10;1.00;99.90
20881;DHT22;10600;53.096;8.802;2023-12-04T05:16:11;1.00;99.90
20881;DHT22;10600;53.096;8.802;2023-12-04T05:17:11;1.00;99.90
20881;DHT22;10600;53.096;8.802;2023-12-04T05:18:12;1.00;99.90
20881;DHT22;10600;53.096;8.802;2023-12-04T05:19:12;1.00;99.90
20881;DHT22;10600;53.096;8.802;2023-12-04T05:20:13;1.00;99.90
20881;DHT22;10600;53.096;8.802;2023-12-04T05:21:14;1.00;99.90
20881;DHT22;10600;53.096;8.802;2023-12-04T05:22:15;1.00;99.90
20881;DHT22;10600;53.096;8.802;2023-12-04T05:23:15;1.00;99.90
20881;DHT22;10600;53.096;8.802;2023-12-04T05:24:16;1.00;99.90
20881;DHT22;10600;53.096;8.802;2023-12-04T05:25:16;1.00;99.90
20881;DHT22;10600;53.096;8.802;2023-12-04T05:26:17;1.00;99.90
20881;DHT22;10600;53.096;8.802;2023-12-04T05:27:17;1.00;99.90
20881;DHT22;10600;53.096;8.802;2023-12-04T05:28:18;1.00;99.90
20881;DHT22;10600;53.096;8.802;2023-12-04T05:29:18;0.90;99.90
20881;DHT22;10600;53.096;8.802;2023-12-04T05:30:19;0.90;99.90
20881;DHT22;10600;53.096;8.802;2023-12-04T05:31:20;0.90;99.90
20881;DHT22;10600;53.096;8.802;2023-12-04T05:32:20;0.90;99.90
20881;DHT22;10600;53.096;8.802;2023-12-04T05:33:21;0.90;99.90
20881;DHT22;10600;53.096;8.802;2023-12-04T05:34:21;0.90;99.90
20881;DHT22;10600;53.096;8.802;2023-12-04T05:35:22;0.90;99.90
20881;DHT22;10600;53.096;8.802;2023-12-04T05:36:22;0.90;99.90
20881;DHT22;10600;53.096;8.802;2023-12-04T05:37:23;0.90;99.90
20881;DHT22;10600;53.096;8.802;2023-12-04T05:38:23;0.90;99.90
20881;DHT22;10600;53.096;8.802;2023-12-04T05:39:24;0.90;99.90
20881;DHT22;10600;53.096;8.802;2023-12-04T05:40:24;0.90;99.90
20881;DHT22;10600;53.096;8.802;2023-12-04T05:41:25;0.90;99.90
20881;DHT22;10600;53.096;8.802;2023-12-04T05:42:25;0.90;99.90
20881;DHT22;10600;53.096;8.802;2023-12-04T05:43:26;0.90;99.90
20881;DHT22;10600;53.096;8.802;2023-12-04T05:44:26;0.90;99.90
20881;DHT22;10600;53.096;8.802;2023-12-04T05:45:27;0.90;99.90
20881;DHT22;10600;53.096;8.802;2023-12-04T05:46:27;1.00;99.90
20881;DHT22;10600;53.096;8.802;2023-12-04T05:47:28;1.00;99.90
20881;DHT22;10600;53.096;8.802;2023-12-04T05:48:28;1.00;99.90
20881;DHT22;10600;53.096;8.802;2023-12-04T05:49:29;0.90;99.90
20881;DHT22;10600;53.096;8.802;2023-12-04T05:50:31;1.00;99.90
20881;DHT22;10600;53.096;8.802;2023-12-04T05:51:32;1.00;99.90
20881;DHT22;10600;53.096;8.802;2023-12-04T05:52:33;1.00;99.90
20881;DHT22;10600;53.096;8.802;2023-12-04T05:53:33;1.00;99.90
20881;DHT22;10600;53.096;8.802;2023-12-04T05:54:34;1.00;99.90
20881;DHT22;10600;53.096;8.802;2023-12-04T05:55:34;1.00;99.90
20881;DHT22;10600;53.096;8.802;2023-12-04T05:56:35;1.00;99.90
20881;DHT22;10600;53.096;8.802;2023-12-04T05:57:35;1.00;99.90
20881;DHT22;10600;53.096;8.802;2023-12-04T05:58:36;1.00;99.90
20881;DHT22;10600;53.096;8.802;2023-12-04T05:59:36;1.00;99.90
20881;DHT22;10600;53.096;8.802;2023-12-04T06:00:37;1.00;99.90
20881;DHT22;10600;53.096;8.802;2023-12-04T06:01:38;1.00;99.90
20881;DHT22;10600;53.096;8.802;2023-12-04T06:02:39;1.00;99.90
20881;DHT22;10600;53.096;8.802;2023-12-04T06:03:39;1.00;99.90
20881;DHT22;10600;53.096;8.802;2023-12-04T06:04:40;1.00;99.90
20881;DHT22;10600;53.096;8.802;2023-12-04T06:05:41;1.10;99.90
20881;DHT22;10600;53.096;8.802;2023-12-04T06:06:41;1.10;99.90
20881;DHT22;10600;53.096;8.802;2023-12-04T06:07:42;1.10;99.90
20881;DHT22;10600;53.096;8.802;2023-12-04T06:08:42;1.10;99.90
20881;DHT22;10600;53.096;8.802;2023-12-04T06:09:43;1.10;99.90
20881;DHT22;10600;53.096;8.802;2023-12-04T06:10:44;1.10;99.90
20881;DHT22;10600;53.096;8.802;2023-12-04T06:11:44;1.10;99.90
20881;DHT22;10600;53.096;8.802;2023-12-04T06:12:45;1.10;99.90
20881;DHT22;10600;53.096;8.802;2023-12-04T06:13:45;1.10;99.90
20881;DHT22;10600;53.096;8.802;2023-12-04T06:14:46;1.00;99.90
20881;DHT22;10600;53.096;8.802;2023-12-04T06:15:46;1.00;99.90
20881;DHT22;10600;53.096;8.802;2023-12-04T06:16:47;1.00;99.90
20881;DHT22;10600;53.096;8.802;2023-12-04T06:17:47;1.00;99.90
20881;DHT22;10600;53.096;8.802;2023-12-04T06:18:48;1.00;99.90
20881;DHT22;10600;53.096;8.802;2023-12-04T06:19:48;1.00;99.90
20881;DHT22;10600;53.096;8.802;2023-12-04T06:20:49;1.00;99.90
20881;DHT22;10600;53.096;8.802;2023-12-04T06:21:49;1.00;99.90
20881;DHT22;10600;53.096;8.802;2023-12-04T06:22:50;1.00;99.90
20881;DHT22;10600;53.096;8.802;2023-12-04T06:23:51;1.00;99.90
20881;DHT22;10600;53.096;8.802;2023-12-04T06:24:52;1.00;99.90
20881;DHT22;10600;53.096;8.802;2023-12-04T06:25:53;1.00;99.90
20881;DHT22;10600;53.096;8.802;2023-12-04T06:26:54;1.00;99.90
20881;DHT22;10600;53.096;8.802;2023-12-04T06:27:54;1.00;99.90
20881;DHT22;10600;53.096;8.802;2023-12-04T06:28:55;1.00;99.90
20881;DHT22;10600;53.096;8.802;2023-12-04T06:29:56;1.00;99.90